Tropical Cyclones
[Index]
Main Index Home Page Stock Weather Photos Extreme Storms Discussion Storm News and Storm Chasing Reports Tropical Cyclones / Hurricanes / Typhoons Weather Data and Links Wild Fires / Bushfires Weather Observation Techniques Weather Picture Catalogue Tornado Pictures and Reports Stock Video Footage and DVDs for sale
Season 1996-1997 Tropical Cyclone ELVINA Track Map
Season 1996-1997 Summaries: [BoM-AU] [JTWC-AU] [JTWC-SIO] [JTWC-SPAC] [JTWC-SH]
<<- Previous TC | JTWC 1996-1997 Season | Next TC ->>

click for intensity scale information  Lat/long Grid: Show Hide

 Date Labels: Show Hide

Joint Typhoon Warning Centre Cyclone Data

Name: ELVINA

03 Dec 1996 12:00 UTC to 16 Dec 1996 12:00 UTC

    date/time    lat    long     hPa   cat  kts
1996-12-03 12    3.0    94.0                  15          
1996-12-03 18    3.9    94.0                  15          
1996-12-04 00    4.6    93.8                  15          
1996-12-04 06    5.2    93.7                  15          
1996-12-04 12    5.8    93.7                  15          
1996-12-04 18    6.3    93.9                  15          
1996-12-05 00    6.8    94.2                  15          
1996-12-05 06    7.3    94.5                  15          
1996-12-05 12    7.8    94.9                  15          
1996-12-05 18    8.3    95.0                  15          
1996-12-06 00    8.8    94.7                  15          
1996-12-06 06    9.1    94.3                  15          
1996-12-06 12    9.4    93.8                  15          
1996-12-06 18    9.6    93.2                  15          
1996-12-07 00    9.7    92.6                  15          
1996-12-07 06    9.9    91.9                  15          
1996-12-07 12   10.0    91.5                  15          
1996-12-07 18   10.1    91.2                  20          
1996-12-08 00   10.4    90.9                  20          
1996-12-08 06   10.8    90.7                  25          
1996-12-08 12   11.3    90.5                  25          
1996-12-08 18   11.9    90.2                  25          
1996-12-09 00   12.4    89.5                  25          
1996-12-09 06   12.6    88.4                  30          
1996-12-09 12   12.6    87.3                  30          
1996-12-09 18   12.5    86.1                  35          
1996-12-10 00   12.6    85.0                  35          
1996-12-10 06   12.8    83.9                  35          
1996-12-10 12   13.0    82.9                  35          
1996-12-10 18   13.1    82.0            1     40          
1996-12-11 00   13.1    81.1            1     45          
1996-12-11 06   13.1    80.2            1     50          
1996-12-11 12   13.1    79.3            2     55          
1996-12-11 18   13.1    78.6            2     55          
1996-12-12 00   13.1    78.2            2     55          
1996-12-12 06   13.2    77.9            2     55          
1996-12-12 12   13.3    77.7            2     55          
1996-12-12 18   13.5    77.6            2     55          
1996-12-13 00   13.7    77.4            1     50          
1996-12-13 06   13.9    77.1            1     45          
1996-12-13 12   14.0    76.8            1     40          
1996-12-13 18   14.2    76.4            1     40          
1996-12-14 00   14.6    75.7                  35          
1996-12-14 06   15.4    75.2                  35          
1996-12-14 12   16.4    74.8                  35          
1996-12-14 18   17.4    74.2                  35          
1996-12-15 00   18.2    73.3                  30          
1996-12-15 06   18.7    72.4                  30          
1996-12-15 12   19.0    71.5                  25          
1996-12-15 18   19.2    70.9                  25          
1996-12-16 00   19.4    70.5                  20          
1996-12-16 06   19.5    70.1                  20          
1996-12-16 12   19.6    69.7                  15          
Winds are 1-min average.

Tropical cyclone tracks developed by Michael Bath using data from the Joint Typhoon Warning Centre Best Tracks and Google Maps.


[Australian Severe Weather index] [Copyright Notice] [Email Contacts] [Search This Site] [Privacy Policy]
Document: tropical_cyclone_elvina.htm Updated: 18 September 2016